Terminal Aerodrome Forecast
Issued by NWS

Home | Current Version | Previous Version | Text Only | Print | Product List | Glossary On
Versions: 1 2 3 4 5 6 7 8 9 10 11 12 13 14 15 16 17 18 19 20 21 22 23 24 25 26 27 28 29 30 31 32 33 34 35 36 37 38 39 40 41 42 43 44 45 46 47 48 49 50
000
FTUS44 KHGX 241734
TAFSGR
TAF
KSGR 241734Z 2418/2518 16011KT P6SM VCSH SCT023 BKN035 OVC060
      TEMPO 2418/2420 BKN023
     FM250200 15008KT P6SM SCT250
     FM250600 15007KT P6SM SCT015 BKN025
     FM251300 15011KT P6SM BKN015 BKN100
     FM251700 15012KT P6SM SCT025 BKN250=

USA.gov is the U.S. government's official web portal to all federal, state and local government web resources and services.